Time;durP1;ratioP1;P1;durP2;ratioP2;P2;SDS_P1;SDS_P2;PMS_P1;PMS_P2;Temp;Humidity;BMP_temperature;BMP_pressure;BME280_temperature;BME280_humidity;BME280_pressure;Samples;Min_cycle;Max_cycle;Signal;HPM_P1;HPM_P2
2022/01/27 00:05:24;;;;;;;55.45;19.85;;;;;;;;;;4992164;28;20195;-51
2022/01/27 00:08:09;;;;;;;47.03;21.20;;;;;;;;;;4993678;28;20169;-51
2022/01/27 00:13:28;;;;;;;53.47;20.85;;;;;;;;;;4991678;28;20259;-50
2022/01/27 00:16:10;;;;;;;48.25;20.80;;;;;;;;;;4994049;28;20216;-50
2022/01/27 00:18:36;;;;;;;39.95;17.40;;;;;;;;;;4992784;28;20283;-51
2022/01/27 00:21:02;;;;;;;52.43;20.80;;;;;;;;;;4993217;28;20286;-51
2022/01/27 00:23:28;;;;;;;48.63;19.80;;;;;;;;;;4993330;28;20400;-50
2022/01/27 00:25:53;;;;;;;45.23;19.83;;;;;;;;;;4990057;28;20436;-51
2022/01/27 00:28:19;;;;;;;40.47;16.70;;;;;;;;;;4992399;28;20404;-51
2022/01/27 00:30:45;;;;;;;45.60;20.00;;;;;;;;;;4990923;28;20892;-50
2022/01/27 00:33:11;;;;;;;42.67;20.90;;;;;;;;;;4993035;28;20432;-50
2022/01/27 00:35:37;;;;;;;49.90;20.73;;;;;;;;;;4992999;28;20495;-50
2022/01/27 00:38:03;;;;;;;53.92;20.13;;;;;;;;;;4993015;28;20506;-50
2022/01/27 00:40:30;;;;;;;56.63;20.20;;;;;;;;;;4992640;28;20738;-50
2022/01/27 00:42:56;;;;;;;32.58;16.10;;;;;;;;;;4992909;28;20220;-51
2022/01/27 00:45:23;;;;;;;36.20;16.33;;;;;;;;;;4991264;28;20175;-51
2022/01/27 00:47:50;;;;;;;44.08;20.08;;;;;;;;;;4993037;28;20198;-51
2022/01/27 00:50:18;;;;;;;40.08;18.50;;;;;;;;;;4992745;28;20523;-52
2022/01/27 00:52:49;;;;;;;38.60;18.20;;;;;;;;;;4992944;28;20181;-50
2022/01/27 00:55:15;;;;;;;40.03;19.10;;;;;;;;;;4992440;28;20235;-52
2022/01/27 01:00:23;;;;;;;45.33;19.20;;;;;;;;;;4992830;28;20183;-51
2022/01/27 01:03:40;;;;;;;46.15;21.13;;;;;;;;;;4992589;28;20185;-51
2022/01/27 01:11:51;;;;;;;47.67;19.33;;;;;;;;;;4992182;28;20184;-50
2022/01/27 01:29:22;;;;;;;43.97;19.95;;;;;;;;;;4992271;28;20631;-50
2022/01/27 01:30:33;;;;;;;50.25;19.00;;;;;;;;;;4991019;28;20183;-51
2022/01/27 01:32:59;;;;;;;46.80;20.33;;;;;;;;;;4991415;28;20688;-50
2022/01/27 01:35:28;;;;;;;39.75;19.00;;;;;;;;;;4992204;28;20207;-50
2022/01/27 01:37:56;;;;;;;47.30;17.98;;;;;;;;;;4992040;28;20267;-51
2022/01/27 01:40:22;;;;;;;42.67;20.23;;;;;;;;;;4991811;28;20212;-51
2022/01/27 01:42:48;;;;;;;40.85;19.35;;;;;;;;;;4991889;28;20214;-52
2022/01/27 01:45:17;;;;;;;46.50;19.90;;;;;;;;;;4992236;28;20629;-50
2022/01/27 01:47:43;;;;;;;53.45;20.30;;;;;;;;;;4992015;28;20416;-50
2022/01/27 01:50:10;;;;;;;41.17;18.80;;;;;;;;;;4991674;28;20173;-51
2022/01/27 01:52:36;;;;;;;46.28;19.95;;;;;;;;;;4991827;28;20204;-50
2022/01/27 01:55:04;;;;;;;43.97;20.17;;;;;;;;;;4991867;28;20173;-50
2022/01/27 01:57:30;;;;;;;43.80;18.92;;;;;;;;;;4992010;28;20209;-50
2022/01/27 01:59:56;;;;;;;37.88;18.85;;;;;;;;;;4990341;28;20260;-50
2022/01/27 02:02:22;;;;;;;48.57;19.23;;;;;;;;;;4992188;28;20239;-50
2022/01/27 02:04:48;;;;;;;42.60;18.90;;;;;;;;;;4991994;28;20404;-50
2022/01/27 02:07:35;;;;;;;44.10;18.42;;;;;;;;;;4991731;28;20165;-50
2022/01/27 02:10:11;;;;;;;46.58;19.30;;;;;;;;;;4991253;28;20555;-51
2022/01/27 02:18:09;;;;;;;40.92;18.10;;;;;;;;;;4991574;28;20259;-51
2022/01/27 02:20:36;;;;;;;44.78;20.67;;;;;;;;;;4990801;28;20235;-50
2022/01/27 02:23:06;;;;;;;44.28;18.98;;;;;;;;;;4991491;28;20575;-51
2022/01/27 02:25:32;;;;;;;44.83;18.75;;;;;;;;;;4991527;28;20176;-50
2022/01/27 02:27:58;;;;;;;47.43;21.70;;;;;;;;;;4991614;28;20177;-51
2022/01/27 02:30:25;;;;;;;38.70;17.45;;;;;;;;;;4991299;28;20397;-50
2022/01/27 02:32:54;;;;;;;39.70;17.83;;;;;;;;;;4991316;28;20200;-50
2022/01/27 02:35:21;;;;;;;37.55;15.90;;;;;;;;;;4990752;28;20173;-51
2022/01/27 02:37:48;;;;;;;38.55;15.70;;;;;;;;;;4991168;28;20196;-50
2022/01/27 02:40:19;;;;;;;39.80;15.93;;;;;;;;;;4991194;28;20256;-52
2022/01/27 02:42:45;;;;;;;43.47;18.20;;;;;;;;;;4994621;28;20291;-50
2022/01/27 02:45:17;;;;;;;42.70;17.67;;;;;;;;;;4995038;28;20219;-50
2022/01/27 02:47:43;;;;;;;32.30;16.00;;;;;;;;;;4995287;28;20396;-50
2022/01/27 02:50:09;;;;;;;40.80;16.53;;;;;;;;;;4995007;28;20169;-51
2022/01/27 02:52:36;;;;;;;44.08;19.30;;;;;;;;;;4995049;28;20427;-50
2022/01/27 02:55:02;;;;;;;40.38;16.75;;;;;;;;;;4995081;28;20630;-50
2022/01/27 02:57:28;;;;;;;38.43;17.23;;;;;;;;;;4994889;28;20312;-50
2022/01/27 02:59:54;;;;;;;35.65;16.55;;;;;;;;;;4993869;28;20427;-50
2022/01/27 03:02:20;;;;;;;37.65;15.15;;;;;;;;;;4994179;28;20203;-51
2022/01/27 03:04:46;;;;;;;39.72;20.58;;;;;;;;;;4995082;28;20212;-51
2022/01/27 03:07:12;;;;;;;40.97;18.13;;;;;;;;;;4995129;28;20173;-53
2022/01/27 03:09:39;;;;;;;47.92;18.92;;;;;;;;;;4994883;28;20412;-51
2022/01/27 03:12:07;;;;;;;45.38;17.73;;;;;;;;;;4994525;28;20220;-51
2022/01/27 03:14:33;;;;;;;41.83;18.08;;;;;;;;;;4994807;28;20169;-52
2022/01/27 03:17:00;;;;;;;45.38;19.38;;;;;;;;;;4994638;28;20160;-52
2022/01/27 03:19:27;;;;;;;35.50;15.88;;;;;;;;;;4994471;28;20664;-50
2022/01/27 03:21:53;;;;;;;38.50;19.27;;;;;;;;;;4994561;28;20784;-50
2022/01/27 03:24:20;;;;;;;48.42;18.98;;;;;;;;;;4992474;28;20177;-51
2022/01/27 03:26:47;;;;;;;49.90;19.77;;;;;;;;;;4993934;28;20184;-51
2022/01/27 03:29:13;;;;;;;36.15;16.65;;;;;;;;;;4994267;28;20165;-50
2022/01/27 03:31:39;;;;;;;41.43;16.80;;;;;;;;;;4994375;28;20562;-50
2022/01/27 03:34:06;;;;;;;48.70;20.27;;;;;;;;;;4993035;28;20458;-51
2022/01/27 03:36:32;;;;;;;49.97;20.65;;;;;;;;;;4994332;28;20173;-51
2022/01/27 03:38:58;;;;;;;43.53;18.77;;;;;;;;;;4994058;28;20197;-50
2022/01/27 03:41:24;;;;;;;37.47;18.30;;;;;;;;;;4994160;28;20416;-50
2022/01/27 03:43:51;;;;;;;41.70;19.27;;;;;;;;;;4994204;28;20396;-50
2022/01/27 03:46:18;;;;;;;48.40;19.25;;;;;;;;;;4994147;28;20634;-50
2022/01/27 03:48:44;;;;;;;38.25;17.13;;;;;;;;;;4992373;28;20235;-50
2022/01/27 03:51:10;;;;;;;44.45;20.45;;;;;;;;;;4993182;28;20216;-49
2022/01/27 03:53:36;;;;;;;43.22;19.75;;;;;;;;;;4992976;28;20176;-50
2022/01/27 03:56:02;;;;;;;41.30;17.80;;;;;;;;;;4992584;28;20212;-50
2022/01/27 03:58:28;;;;;;;45.78;20.23;;;;;;;;;;4993851;28;20341;-50
2022/01/27 04:00:54;;;;;;;40.77;17.90;;;;;;;;;;4993237;28;20169;-50
2022/01/27 04:03:21;;;;;;;39.93;16.53;;;;;;;;;;4993426;28;20420;-50
2022/01/27 04:05:55;;;;;;;41.15;17.10;;;;;;;;;;4993979;28;20404;-51
2022/01/27 04:08:22;;;;;;;42.72;18.98;;;;;;;;;;4993958;28;20825;-50
2022/01/27 04:10:48;;;;;;;40.88;18.63;;;;;;;;;;4993691;28;20239;-50
2022/01/27 04:13:15;;;;;;;35.75;16.38;;;;;;;;;;4992396;28;20561;-51
2022/01/27 04:15:42;;;;;;;38.42;17.50;;;;;;;;;;4993683;28;20293;-50
2022/01/27 04:18:08;;;;;;;40.58;18.17;;;;;;;;;;4992342;28;20215;-50
2022/01/27 04:20:34;;;;;;;39.05;17.90;;;;;;;;;;4993380;28;20208;-50
2022/01/27 04:23:00;;;;;;;53.83;21.00;;;;;;;;;;4993262;28;20877;-50
2022/01/27 04:25:26;;;;;;;50.40;19.03;;;;;;;;;;4993423;28;20411;-50
2022/01/27 04:27:57;;;;;;;37.77;16.83;;;;;;;;;;4993370;28;20411;-51
2022/01/27 04:30:25;;;;;;;48.25;16.15;;;;;;;;;;4992174;28;20811;-50
2022/01/27 04:32:55;;;;;;;39.70;18.58;;;;;;;;;;4993293;28;20532;-50
2022/01/27 04:35:23;;;;;;;38.40;17.73;;;;;;;;;;4993310;28;20162;-50
2022/01/27 04:37:58;;;;;;;44.78;18.63;;;;;;;;;;4991438;28;20704;-51
2022/01/27 04:40:34;;;;;;;38.00;15.52;;;;;;;;;;4992968;28;20160;-50
2022/01/27 04:45:32;;;;;;;43.23;17.90;;;;;;;;;;4993130;28;20177;-49
2022/01/27 04:48:08;;;;;;;36.72;17.27;;;;;;;;;;4993064;28;20481;-50
2022/01/27 04:50:34;;;;;;;29.35;15.90;;;;;;;;;;4992848;28;20263;-50
2022/01/27 04:53:04;;;;;;;44.20;15.83;;;;;;;;;;4992797;28;20736;-52
2022/01/27 04:55:30;;;;;;;41.47;16.48;;;;;;;;;;4992868;28;20455;-50
2022/01/27 04:58:07;;;;;;;39.93;16.80;;;;;;;;;;4992752;28;20280;-50
2022/01/27 05:00:33;;;;;;;40.28;17.13;;;;;;;;;;4992599;28;20392;-50
2022/01/27 05:03:01;;;;;;;40.03;17.20;;;;;;;;;;4991764;28;20203;-50
2022/01/27 05:05:27;;;;;;;36.65;16.20;;;;;;;;;;4992523;28;20520;-50
2022/01/27 05:07:59;;;;;;;39.35;16.83;;;;;;;;;;4992649;28;20248;-52
2022/01/27 05:10:30;;;;;;;36.53;16.88;;;;;;;;;;4992570;28;20645;-50
2022/01/27 05:13:05;;;;;;;33.90;18.65;;;;;;;;;;4992394;28;20232;-52
2022/01/27 05:15:31;;;;;;;35.10;14.10;;;;;;;;;;4992853;28;20260;-50
2022/01/27 05:17:57;;;;;;;37.42;16.58;;;;;;;;;;4992568;28;20192;-50
2022/01/27 05:20:23;;;;;;;34.40;15.50;;;;;;;;;;4992302;28;20173;-51
2022/01/27 05:22:49;;;;;;;32.37;16.13;;;;;;;;;;4992388;28;20439;-50
2022/01/27 05:25:16;;;;;;;31.07;15.00;;;;;;;;;;4992396;28;20543;-52
2022/01/27 05:27:42;;;;;;;28.40;13.43;;;;;;;;;;4991546;28;20511;-50
2022/01/27 05:30:09;;;;;;;37.23;15.37;;;;;;;;;;4992019;28;20645;-50
2022/01/27 05:32:36;;;;;;;33.22;15.73;;;;;;;;;;4992037;28;20431;-51
2022/01/27 05:35:02;;;;;;;37.50;17.48;;;;;;;;;;4992150;28;20203;-52
2022/01/27 05:37:28;;;;;;;35.70;15.57;;;;;;;;;;4992055;28;20200;-50
2022/01/27 05:39:54;;;;;;;36.07;15.40;;;;;;;;;;4991909;28;20177;-50
2022/01/27 05:42:20;;;;;;;39.67;15.63;;;;;;;;;;4991767;28;21222;-51
2022/01/27 05:44:46;;;;;;;36.73;14.97;;;;;;;;;;4992031;28;20749;-50
2022/01/27 05:47:13;;;;;;;33.53;15.20;;;;;;;;;;4991939;28;20427;-50
2022/01/27 05:49:40;;;;;;;38.28;16.98;;;;;;;;;;4991813;28;20432;-52
2022/01/27 05:52:06;;;;;;;36.50;14.10;;;;;;;;;;4990844;28;20702;-50
2022/01/27 05:54:34;;;;;;;31.65;15.77;;;;;;;;;;4991931;28;20649;-50
2022/01/27 05:57:00;;;;;;;33.38;15.48;;;;;;;;;;4991729;28;20216;-51
2022/01/27 05:59:26;;;;;;;31.73;14.07;;;;;;;;;;4991618;28;20176;-52
2022/01/27 06:01:52;;;;;;;32.67;14.45;;;;;;;;;;4991735;28;20731;-50
2022/01/27 06:04:18;;;;;;;31.00;14.83;;;;;;;;;;4991818;28;20180;-50
2022/01/27 06:06:44;;;;;;;29.20;14.65;;;;;;;;;;4991783;28;20416;-50
2022/01/27 06:09:11;;;;;;;28.88;14.27;;;;;;;;;;4991532;28;20161;-50
2022/01/27 06:11:37;;;;;;;35.58;16.75;;;;;;;;;;4991475;28;20233;-50
2022/01/27 06:16:45;;;;;;;27.65;12.90;;;;;;;;;;4973119;28;20691;-49
2022/01/27 06:19:11;;;;;;;32.78;14.43;;;;;;;;;;4978632;28;20193;-49
2022/01/27 06:21:37;;;;;;;29.53;15.00;;;;;;;;;;4978884;28;20181;-48
2022/01/27 06:24:03;;;;;;;31.63;15.40;;;;;;;;;;4978904;28;20397;-49
2022/01/27 06:26:29;;;;;;;30.40;14.52;;;;;;;;;;4978810;28;20185;-49
2022/01/27 06:28:56;;;;;;;43.25;16.20;;;;;;;;;;4978750;28;20177;-49
2022/01/27 06:31:22;;;;;;;34.78;15.45;;;;;;;;;;4978944;28;20170;-50
2022/01/27 06:33:48;;;;;;;31.98;14.30;;;;;;;;;;4979002;28;20180;-49
2022/01/27 06:36:14;;;;;;;32.92;14.05;;;;;;;;;;4978647;28;20194;-49
2022/01/27 06:38:40;;;;;;;34.97;14.93;;;;;;;;;;4977982;28;20196;-49
2022/01/27 06:41:06;;;;;;;35.93;14.90;;;;;;;;;;4977565;28;21083;-49
2022/01/27 06:43:32;;;;;;;32.73;16.30;;;;;;;;;;4978720;28;20401;-49
2022/01/27 06:45:58;;;;;;;33.47;15.43;;;;;;;;;;4978777;28;20428;-49
2022/01/27 06:48:24;;;;;;;27.60;13.70;;;;;;;;;;4978552;28;20463;-49
2022/01/27 06:50:54;;;;;;;28.30;14.70;;;;;;;;;;4978322;28;20429;-49
2022/01/27 06:53:20;;;;;;;39.60;15.65;;;;;;;;;;4978602;28;20405;-49
2022/01/27 06:55:46;;;;;;;28.23;13.30;;;;;;;;;;4978446;28;20224;-48
2022/01/27 06:58:12;;;;;;;40.43;16.80;;;;;;;;;;4978430;28;20224;-49
2022/01/27 07:00:38;;;;;;;33.83;16.43;;;;;;;;;;4978516;28;20552;-49
2022/01/27 07:03:04;;;;;;;30.03;14.70;;;;;;;;;;4977824;28;20415;-49
2022/01/27 07:05:32;;;;;;;34.13;13.63;;;;;;;;;;4977333;28;20448;-49
2022/01/27 07:07:58;;;;;;;33.33;15.98;;;;;;;;;;4978484;28;20176;-49
2022/01/27 07:10:24;;;;;;;33.55;15.15;;;;;;;;;;4978151;28;20177;-50
2022/01/27 07:12:50;;;;;;;31.08;15.30;;;;;;;;;;4978335;28;20185;-50
2022/01/27 07:15:16;;;;;;;27.60;14.13;;;;;;;;;;4978263;28;20213;-50
2022/01/27 07:17:42;;;;;;;25.87;14.33;;;;;;;;;;4978259;28;20475;-49
2022/01/27 07:20:08;;;;;;;26.83;14.27;;;;;;;;;;4978227;28;20915;-49
2022/01/27 07:22:35;;;;;;;29.02;15.05;;;;;;;;;;4978337;28;20400;-49
2022/01/27 07:25:01;;;;;;;37.03;14.15;;;;;;;;;;4978311;28;20560;-50
2022/01/27 07:27:27;;;;;;;27.85;14.18;;;;;;;;;;4976984;28;20303;-49
2022/01/27 07:29:53;;;;;;;32.63;15.90;;;;;;;;;;4974304;28;20174;-49
2022/01/27 07:32:19;;;;;;;27.77;13.87;;;;;;;;;;4975460;28;20185;-50
2022/01/27 07:34:45;;;;;;;31.33;14.07;;;;;;;;;;4975188;28;20429;-49
2022/01/27 07:37:11;;;;;;;31.90;13.50;;;;;;;;;;4975074;28;20782;-49
2022/01/27 07:39:37;;;;;;;36.50;16.87;;;;;;;;;;4974906;28;20556;-49
2022/01/27 07:42:03;;;;;;;26.80;13.17;;;;;;;;;;4975014;28;20425;-49
2022/01/27 07:44:29;;;;;;;28.92;13.95;;;;;;;;;;4974915;28;20978;-50
2022/01/27 07:46:55;;;;;;;35.30;15.07;;;;;;;;;;4974814;28;20178;-49
2022/01/27 07:49:21;;;;;;;40.58;18.02;;;;;;;;;;4974648;28;20409;-49
2022/01/27 07:51:47;;;;;;;30.05;15.43;;;;;;;;;;4974804;28;20185;-49
2022/01/27 07:54:13;;;;;;;36.17;15.32;;;;;;;;;;4973560;28;20189;-49
2022/01/27 07:56:39;;;;;;;36.00;16.30;;;;;;;;;;4974707;28;20212;-50
2022/01/27 07:59:05;;;;;;;32.93;13.60;;;;;;;;;;4974338;28;20578;-49
2022/01/27 08:01:32;;;;;;;30.40;14.37;;;;;;;;;;4974641;28;20436;-49
2022/01/27 08:03:58;;;;;;;29.13;15.43;;;;;;;;;;4974559;28;20846;-50
2022/01/27 08:06:24;;;;;;;34.33;16.67;;;;;;;;;;4974510;28;20190;-49
2022/01/27 08:08:50;;;;;;;34.03;16.25;;;;;;;;;;4974332;28;20409;-49
2022/01/27 08:11:17;;;;;;;32.50;16.05;;;;;;;;;;4974467;28;20217;-50
2022/01/27 08:13:43;;;;;;;36.28;16.13;;;;;;;;;;4974530;28;20170;-50
2022/01/27 08:16:09;;;;;;;35.72;15.68;;;;;;;;;;4974273;28;20236;-50
2022/01/27 08:18:35;;;;;;;40.93;15.70;;;;;;;;;;4972688;28;20305;-49
2022/01/27 08:21:01;;;;;;;32.20;16.00;;;;;;;;;;4974239;28;20472;-49
2022/01/27 08:23:27;;;;;;;33.77;16.57;;;;;;;;;;4974351;28;20409;-50
2022/01/27 08:26:04;;;;;;;30.60;16.10;;;;;;;;;;4974281;28;20520;-50
2022/01/27 08:28:36;;;;;;;34.90;18.20;;;;;;;;;;4974393;28;20483;-49
2022/01/27 08:31:04;;;;;;;32.05;16.13;;;;;;;;;;4974267;28;20277;-49
2022/01/27 08:33:31;;;;;;;42.70;19.20;;;;;;;;;;4974214;28;20659;-49
2022/01/27 08:35:58;;;;;;;42.97;18.98;;;;;;;;;;4973910;28;20669;-49
2022/01/27 08:38:25;;;;;;;34.13;17.25;;;;;;;;;;4971811;28;20259;-50
2022/01/27 08:40:51;;;;;;;38.40;17.10;;;;;;;;;;4971743;28;20197;-49
2022/01/27 08:43:17;;;;;;;43.90;17.97;;;;;;;;;;4972953;28;20206;-50
2022/01/27 08:46:21;;;;;;;40.43;16.63;;;;;;;;;;4973446;28;20409;-49
2022/01/27 08:48:46;;;;;;;41.60;17.13;;;;;;;;;;4973713;28;20401;-49
2022/01/27 08:51:14;;;;;;;33.07;16.63;;;;;;;;;;4973543;28;20180;-50
2022/01/27 08:53:40;;;;;;;37.03;16.38;;;;;;;;;;4973614;28;20401;-50
2022/01/27 08:56:06;;;;;;;36.05;17.52;;;;;;;;;;4973615;28;20198;-49
2022/01/27 08:58:34;;;;;;;34.15;16.42;;;;;;;;;;4973602;28;20577;-49
2022/01/27 09:01:02;;;;;;;35.20;16.23;;;;;;;;;;4973230;28;20165;-49
2022/01/27 09:03:30;;;;;;;39.20;18.67;;;;;;;;;;4973425;28;20530;-50
2022/01/27 09:05:56;;;;;;;34.85;17.52;;;;;;;;;;4972815;28;20654;-50
2022/01/27 09:08:22;;;;;;;37.38;17.70;;;;;;;;;;4973337;28;20556;-51
2022/01/27 09:10:48;;;;;;;38.67;17.23;;;;;;;;;;4973208;28;20180;-49
2022/01/27 09:13:15;;;;;;;43.03;17.23;;;;;;;;;;4973319;28;20408;-49
2022/01/27 09:15:43;;;;;;;38.17;15.65;;;;;;;;;;4972169;28;20245;-51
2022/01/27 09:18:09;;;;;;;42.72;15.85;;;;;;;;;;4973151;28;20220;-50
2022/01/27 09:20:35;;;;;;;36.38;16.85;;;;;;;;;;4973020;28;20170;-49
2022/01/27 09:23:02;;;;;;;39.43;16.60;;;;;;;;;;4973227;28;20249;-49
2022/01/27 09:25:32;;;;;;;38.50;16.10;;;;;;;;;;4973516;28;21061;-49
2022/01/27 09:27:58;;;;;;;40.22;17.48;;;;;;;;;;4972134;28;20700;-50
2022/01/27 09:30:25;;;;;;;36.25;16.25;;;;;;;;;;4973043;28;20537;-50
2022/01/27 09:32:51;;;;;;;36.70;15.73;;;;;;;;;;4973059;28;20177;-50
2022/01/27 09:35:17;;;;;;;33.23;15.20;;;;;;;;;;4972885;28;20196;-49
2022/01/27 09:37:43;;;;;;;31.92;15.45;;;;;;;;;;4972800;28;20944;-50
2022/01/27 09:40:09;;;;;;;34.60;16.25;;;;;;;;;;4972657;28;20557;-50
2022/01/27 09:42:37;;;;;;;35.25;13.77;;;;;;;;;;4972696;28;20165;-49
2022/01/27 09:45:05;;;;;;;31.88;14.60;;;;;;;;;;4971194;28;20219;-50
2022/01/27 09:47:34;;;;;;;29.10;14.63;;;;;;;;;;4972633;28;20170;-50
2022/01/27 09:50:24;;;;;;;33.42;15.23;;;;;;;;;;4972273;28;20178;-50
2022/01/27 09:52:50;;;;;;;31.25;15.32;;;;;;;;;;4972372;28;20170;-50
2022/01/27 09:55:16;;;;;;;36.53;16.52;;;;;;;;;;4972583;28;20665;-49
2022/01/27 09:57:42;;;;;;;35.77;15.93;;;;;;;;;;4972510;28;20213;-50
2022/01/27 10:00:09;;;;;;;29.97;14.63;;;;;;;;;;4972462;28;20440;-50
2022/01/27 10:02:35;;;;;;;35.20;15.60;;;;;;;;;;4972586;28;20777;-50
2022/01/27 10:05:02;;;;;;;35.47;16.27;;;;;;;;;;4972575;28;20200;-50
2022/01/27 10:07:32;;;;;;;29.13;16.00;;;;;;;;;;4972100;28;20428;-49
2022/01/27 10:10:05;;;;;;;28.92;14.90;;;;;;;;;;4972417;28;20545;-49
2022/01/27 10:12:39;;;;;;;27.15;14.48;;;;;;;;;;4971796;28;20512;-51
2022/01/27 10:15:13;;;;;;;32.70;15.50;;;;;;;;;;4972435;28;20554;-50
2022/01/27 10:17:59;;;;;;;33.78;12.70;;;;;;;;;;4972388;28;20208;-50
2022/01/27 10:20:25;;;;;;;26.52;12.55;;;;;;;;;;4972138;28;20173;-49
2022/01/27 10:23:09;;;;;;;26.70;13.53;;;;;;;;;;4972454;28;20166;-49
2022/01/27 10:25:36;;;;;;;27.67;13.32;;;;;;;;;;4972320;28;20416;-49
2022/01/27 10:28:12;;;;;;;27.27;12.32;;;;;;;;;;4972419;28;20198;-50
2022/01/27 10:30:38;;;;;;;23.23;12.82;;;;;;;;;;4972337;28;20180;-49
2022/01/27 10:33:05;;;;;;;20.67;11.20;;;;;;;;;;4972489;28;20172;-50
2022/01/27 10:35:31;;;;;;;25.80;10.93;;;;;;;;;;4971642;28;20197;-51
2022/01/27 10:38:05;;;;;;;20.87;11.20;;;;;;;;;;4969609;28;20201;-49
2022/01/27 10:40:35;;;;;;;19.02;10.90;;;;;;;;;;4968684;28;20425;-51
2022/01/27 10:43:04;;;;;;;17.95;8.57;;;;;;;;;;4971208;28;20205;-50
2022/01/27 10:45:31;;;;;;;16.85;11.02;;;;;;;;;;4972160;28;20192;-50
2022/01/27 10:48:25;;;;;;;23.48;11.18;;;;;;;;;;4972160;28;20192;-49
2022/01/27 10:53:41;;;;;;;22.05;11.00;;;;;;;;;;4972197;28;20185;-50
2022/01/27 10:56:07;;;;;;;16.70;10.45;;;;;;;;;;4971967;28;20273;-49
2022/01/27 10:58:34;;;;;;;22.25;11.45;;;;;;;;;;4971946;28;20225;-49
2022/01/27 11:01:01;;;;;;;24.77;11.70;;;;;;;;;;4971804;28;20173;-50
2022/01/27 11:03:28;;;;;;;21.10;12.02;;;;;;;;;;4974800;28;20629;-51
2022/01/27 11:05:56;;;;;;;17.88;11.77;;;;;;;;;;4975351;28;20197;-49
2022/01/27 11:08:24;;;;;;;22.50;11.50;;;;;;;;;;4975648;28;20165;-49
2022/01/27 11:10:50;;;;;;;22.63;12.15;;;;;;;;;;4975406;28;20172;-50
2022/01/27 11:13:21;;;;;;;26.15;12.77;;;;;;;;;;4975007;28;20183;-50
2022/01/27 11:15:47;;;;;;;22.38;12.25;;;;;;;;;;4974657;28;20681;-50
2022/01/27 11:18:16;;;;;;;25.75;12.30;;;;;;;;;;4974024;28;20224;-49
2022/01/27 11:26:08;;;;;;;23.25;13.60;;;;;;;;;;4955858;28;20277;-50
2022/01/27 11:28:35;;;;;;;19.20;11.23;;;;;;;;;;4956195;28;20639;-50
2022/01/27 11:31:10;;;;;;;22.15;12.07;;;;;;;;;;4956005;28;20256;-49
2022/01/27 11:33:37;;;;;;;28.98;12.88;;;;;;;;;;4955724;28;20177;-51
2022/01/27 11:36:14;;;;;;;23.92;13.00;;;;;;;;;;4955742;28;20551;-50
2022/01/27 11:38:42;;;;;;;21.60;12.52;;;;;;;;;;4955586;28;20204;-49
2022/01/27 11:41:28;;;;;;;23.70;11.50;;;;;;;;;;4955471;28;20682;-48
2022/01/27 11:44:14;;;;;;;18.40;11.55;;;;;;;;;;4962499;28;20186;-49
2022/01/27 11:46:40;;;;;;;20.83;12.32;;;;;;;;;;4974077;28;20181;-49
2022/01/27 11:49:05;;;;;;;24.83;12.10;;;;;;;;;;4974672;28;20181;-50
2022/01/27 11:51:31;;;;;;;22.27;12.13;;;;;;;;;;4974817;28;20499;-50
2022/01/27 11:54:00;;;;;;;23.53;12.80;;;;;;;;;;4974756;28;20412;-51
2022/01/27 11:56:30;;;;;;;23.05;13.77;;;;;;;;;;4974402;28;20427;-50
2022/01/27 11:58:57;;;;;;;22.98;14.43;;;;;;;;;;4974421;28;20225;-50
2022/01/27 12:01:25;;;;;;;20.92;12.40;;;;;;;;;;4973421;28;20182;-50
2022/01/27 12:04:04;;;;;;;24.65;13.63;;;;;;;;;;4974501;28;20205;-50
2022/01/27 12:06:32;;;;;;;21.80;13.20;;;;;;;;;;4974318;28;20256;-51
2022/01/27 12:09:16;;;;;;;23.45;12.38;;;;;;;;;;4974221;28;20482;-49
2022/01/27 12:12:03;;;;;;;23.10;12.20;;;;;;;;;;4973531;28;20764;-49
2022/01/27 12:14:35;;;;;;;20.10;12.88;;;;;;;;;;4973363;28;20182;-49
2022/01/27 12:17:10;;;;;;;21.13;13.02;;;;;;;;;;5020289;23;20699;-50
2022/01/27 12:19:47;;;;;;;24.50;13.55;;;;;;;;;;5013819;28;20203;-50
2022/01/27 12:22:15;;;;;;;21.23;12.05;;;;;;;;;;5014296;28;20240;-50
2022/01/27 12:24:50;;;;;;;17.10;12.02;;;;;;;;;;5014992;28;20248;-50
2022/01/27 12:27:19;;;;;;;17.17;10.70;;;;;;;;;;4994447;28;20263;-50
2022/01/27 12:29:50;;;;;;;18.85;11.73;;;;;;;;;;4995553;28;20161;-49
2022/01/27 12:32:16;;;;;;;20.13;11.73;;;;;;;;;;4996646;28;20644;-49
2022/01/27 12:34:46;;;;;;;19.93;11.80;;;;;;;;;;4996248;28;20404;-50
2022/01/27 12:37:12;;;;;;;18.63;11.07;;;;;;;;;;4997408;28;20420;-50
2022/01/27 12:39:50;;;;;;;21.55;13.05;;;;;;;;;;4996782;28;20257;-50
2022/01/27 12:42:17;;;;;;;16.80;11.00;;;;;;;;;;4997423;28;20172;-49
2022/01/27 12:44:54;;;;;;;17.73;11.27;;;;;;;;;;4997723;28;20168;-49
2022/01/27 12:47:20;;;;;;;23.02;12.93;;;;;;;;;;4996005;28;20678;-49
2022/01/27 12:49:47;;;;;;;14.70;10.33;;;;;;;;;;4996923;28;20169;-50
2022/01/27 12:52:18;;;;;;;16.88;10.63;;;;;;;;;;4997819;28;20397;-50
2022/01/27 12:54:45;;;;;;;19.98;12.00;;;;;;;;;;4997287;28;20236;-50
2022/01/27 12:57:13;;;;;;;17.73;11.85;;;;;;;;;;4997214;28;20249;-50
2022/01/27 12:59:43;;;;;;;19.88;12.52;;;;;;;;;;4997074;28;20228;-50
2022/01/27 13:02:10;;;;;;;18.58;10.77;;;;;;;;;;4997437;28;20189;-50
2022/01/27 13:04:36;;;;;;;22.13;12.38;;;;;;;;;;4997423;28;20540;-50
2022/01/27 13:07:03;;;;;;;21.30;12.88;;;;;;;;;;4996394;28;20549;-50
2022/01/27 13:09:32;;;;;;;21.05;12.32;;;;;;;;;;4996778;28;20177;-49
2022/01/27 13:11:59;;;;;;;23.45;13.20;;;;;;;;;;4995674;28;20177;-49
2022/01/27 13:14:26;;;;;;;21.40;13.05;;;;;;;;;;4997196;28;20173;-49
2022/01/27 13:16:58;;;;;;;21.98;14.00;;;;;;;;;;4996696;28;20822;-50
2022/01/27 13:19:42;;;;;;;25.95;15.00;;;;;;;;;;4996448;28;20197;-49
2022/01/27 13:22:13;;;;;;;27.00;15.48;;;;;;;;;;4997067;28;20172;-50
2022/01/27 13:24:46;;;;;;;22.20;12.40;;;;;;;;;;4996988;28;20161;-49
2022/01/27 13:27:13;;;;;;;24.23;14.73;;;;;;;;;;4997733;28;20216;-52
2022/01/27 13:29:46;;;;;;;30.20;14.30;;;;;;;;;;4998479;28;20277;-50
2022/01/27 13:32:12;;;;;;;25.52;14.95;;;;;;;;;;4998293;28;20188;-49
2022/01/27 13:34:43;;;;;;;23.23;13.93;;;;;;;;;;4998333;28;20202;-50
2022/01/27 13:37:09;;;;;;;27.80;14.90;;;;;;;;;;4995757;28;20711;-49
2022/01/27 13:41:16;;;;;;;23.73;14.25;;;;;;;;;;4996332;28;20226;-49
2022/01/27 13:42:33;;;;;;;20.40;13.75;;;;;;;;;;4997524;28;20239;-49
2022/01/27 13:45:01;;;;;;;23.58;13.32;;;;;;;;;;4996902;28;20588;-49
2022/01/27 13:47:34;;;;;;;26.00;13.75;;;;;;;;;;4996556;28;20172;-49
2022/01/27 13:50:08;;;;;;;26.17;14.93;;;;;;;;;;4995835;28;20176;-50
2022/01/27 13:52:51;;;;;;;24.05;14.15;;;;;;;;;;4996283;28;20236;-50
2022/01/27 13:55:21;;;;;;;22.63;13.95;;;;;;;;;;4995546;28;20197;-51
2022/01/27 13:57:57;;;;;;;24.98;14.38;;;;;;;;;;4995076;28;20189;-50
2022/01/27 14:00:37;;;;;;;23.50;13.60;;;;;;;;;;4994214;28;20165;-50
2022/01/27 14:03:10;;;;;;;22.75;13.80;;;;;;;;;;4993361;28;20388;-50
2022/01/27 14:05:36;;;;;;;24.40;14.25;;;;;;;;;;4992378;28;20201;-49
2022/01/27 14:08:03;;;;;;;21.70;13.53;;;;;;;;;;4993193;28;20261;-49
2022/01/27 14:10:42;;;;;;;22.37;13.33;;;;;;;;;;4992788;28;20408;-49
2022/01/27 14:13:22;;;;;;;26.75;15.50;;;;;;;;;;4992525;28;20926;-49
2022/01/27 14:15:53;;;;;;;24.17;15.07;;;;;;;;;;4992864;28;20204;-50
2022/01/27 14:18:18;;;;;;;20.70;14.35;;;;;;;;;;4992740;28;20196;-50
2022/01/27 14:20:56;;;;;;;34.87;15.40;;;;;;;;;;4992592;28;20173;-50
2022/01/27 14:23:40;;;;;;;23.90;15.15;;;;;;;;;;4993142;28;20900;-50
2022/01/27 14:26:07;;;;;;;25.20;14.80;;;;;;;;;;4992958;28;20190;-50
2022/01/27 14:28:35;;;;;;;24.85;15.38;;;;;;;;;;4992192;28;20173;-50
2022/01/27 14:31:01;;;;;;;29.60;16.35;;;;;;;;;;4992553;28;20173;-49
2022/01/27 14:33:27;;;;;;;32.13;16.90;;;;;;;;;;4992759;28;20201;-50
2022/01/27 14:35:54;;;;;;;29.80;17.10;;;;;;;;;;4992926;28;20425;-49
2022/01/27 14:38:20;;;;;;;32.47;18.97;;;;;;;;;;4995529;28;20451;-49
2022/01/27 14:40:48;;;;;;;33.83;18.40;;;;;;;;;;4996498;28;20412;-49
2022/01/27 14:43:14;;;;;;;30.13;18.88;;;;;;;;;;4996725;28;20410;-50
2022/01/27 14:45:40;;;;;;;36.47;20.10;;;;;;;;;;4997080;28;20205;-49
2022/01/27 14:48:06;;;;;;;33.90;19.83;;;;;;;;;;4996482;28;20420;-49
2022/01/27 14:50:34;;;;;;;34.50;20.10;;;;;;;;;;4996827;28;20460;-49
2022/01/27 14:53:00;;;;;;;37.00;20.30;;;;;;;;;;4996302;28;20404;-49
2022/01/27 14:55:27;;;;;;;37.90;19.40;;;;;;;;;;4987789;28;20484;-50
2022/01/27 14:57:53;;;;;;;32.37;20.13;;;;;;;;;;4990548;28;20449;-49
2022/01/27 15:00:20;;;;;;;35.80;19.93;;;;;;;;;;4994600;28;20475;-49
2022/01/27 15:02:46;;;;;;;43.33;23.20;;;;;;;;;;4996190;28;20451;-50
2022/01/27 15:05:12;;;;;;;48.23;22.90;;;;;;;;;;4995342;28;20432;-49
2022/01/27 15:07:38;;;;;;;43.00;23.50;;;;;;;;;;4996042;28;20416;-49
2022/01/27 15:10:07;;;;;;;43.80;22.50;;;;;;;;;;4996247;28;20400;-49
2022/01/27 15:12:34;;;;;;;48.83;23.30;;;;;;;;;;4996269;28;20440;-50